Time;durP1;ratioP1;P1;durP2;ratioP2;P2;SDS_P1;SDS_P2;PMS_P1;PMS_P2;Temp;Humidity;BMP_temperature;BMP_pressure;BME280_temperature;BME280_humidity;BME280_pressure;Samples;Min_cycle;Max_cycle;Signal;HPM_P1;HPM_P2
2021/03/02 00:03:07;;;;;;;0.70;0.70;;;;;;;4.93;62.03;98155.87;299395;349;63009;-53
2021/03/02 00:08:09;;;;;;;0.70;0.70;;;;;;;4.89;61.72;98158.19;299417;198;63005;-58
2021/03/02 00:13:11;;;;;;;0.70;0.70;;;;;;;4.91;61.71;98160.66;299396;327;63009;-58
2021/03/02 00:18:16;;;;;;;0.60;0.60;;;;;;;4.91;61.43;98160.66;299396;222;63005;-57
2021/03/02 00:23:38;;;;;;;0.70;0.70;;;;;;;4.96;61.30;98164.31;299418;197;63009;-54
2021/03/02 00:28:40;;;;;;;0.70;0.70;;;;;;;4.93;61.98;98155.87;299396;230;63004;-53
2021/03/02 00:33:45;;;;;;;0.70;0.70;;;;;;;4.90;61.68;98170.59;299396;338;63009;-57
2021/03/02 00:38:46;;;;;;;0.70;0.70;;;;;;;4.82;61.90;98162.03;299396;213;63005;-58
2021/03/02 00:43:49;;;;;;;0.70;0.70;;;;;;;4.76;62.98;98162.94;299396;198;63009;-58
2021/03/02 00:48:51;;;;;;;0.70;0.70;;;;;;;4.74;62.86;98168.53;299396;222;63005;-54
2021/03/02 00:53:52;;;;;;;0.70;0.70;;;;;;;4.73;62.80;98158.81;299396;337;63009;-53
2021/03/02 00:58:53;;;;;;;0.70;0.70;;;;;;;4.73;62.98;98164.19;299397;256;63004;-53
2021/03/02 01:03:54;;;;;;;0.70;0.70;;;;;;;4.76;62.89;98168.31;299397;355;63009;-53
2021/03/02 01:08:55;;;;;;;0.70;0.70;;;;;;;4.78;63.21;98166.22;299396;269;63005;-53
2021/03/02 01:13:56;;;;;;;0.70;0.70;;;;;;;4.74;63.41;98167.69;299396;196;63009;-53
2021/03/02 01:18:57;;;;;;;0.70;0.70;;;;;;;4.75;62.84;98161.28;299396;211;63005;-57
2021/03/02 01:23:58;;;;;;;0.70;0.70;;;;;;;4.80;62.79;98159.56;299396;336;63020;-53
2021/03/02 01:28:59;;;;;;;0.70;0.70;;;;;;;4.74;62.93;98160.47;299396;197;63004;-53
2021/03/02 01:34:00;;;;;;;0.70;0.70;;;;;;;4.77;62.54;98159.19;299396;315;63009;-54
2021/03/02 01:39:03;;;;;;;0.70;0.70;;;;;;;4.83;62.31;98156.44;299396;193;63005;-53
2021/03/02 01:44:05;;;;;;;0.70;0.70;;;;;;;4.84;62.23;98154.56;299396;222;63018;-53
2021/03/02 01:49:07;;;;;;;0.70;0.70;;;;;;;4.77;62.27;98151.13;299397;238;63004;-57
2021/03/02 01:54:11;;;;;;;0.70;0.70;;;;;;;4.66;63.01;98148.13;299397;196;63009;-58
2021/03/02 01:59:12;;;;;;;0.70;0.70;;;;;;;4.67;62.80;98149.78;299395;198;63004;-58
2021/03/02 02:04:29;;;;;;;0.70;0.70;;;;;;;4.65;63.20;98153.72;299395;294;63009;-53
2021/03/02 02:10:28;;;;;;;0.70;0.70;;;;;;;4.54;63.58;98151.78;299395;215;63005;-53
2021/03/02 02:15:37;;;;;;;0.70;0.70;;;;;;;4.44;64.12;98148.81;299395;267;63009;-54
2021/03/02 02:21:10;;;;;;;0.70;0.70;;;;;;;4.38;64.72;98145.12;299395;196;63004;-52
2021/03/02 02:26:42;;;;;;;0.70;0.70;;;;;;;4.28;64.89;98144.81;299395;240;63004;-54
2021/03/02 02:31:45;;;;;;;0.70;0.70;;;;;;;4.16;65.46;98138.56;299395;258;63005;-53
2021/03/02 02:36:48;;;;;;;0.70;0.70;;;;;;;4.10;65.77;98142.13;299395;221;63008;-56
2021/03/02 02:41:52;;;;;;;0.70;0.70;;;;;;;4.05;66.14;98140.09;299395;256;63004;-52
2021/03/02 02:46:56;;;;;;;0.70;0.70;;;;;;;4.04;66.04;98144.62;299395;245;63009;-54
2021/03/02 02:51:58;;;;;;;0.70;0.70;;;;;;;4.13;65.73;98141.69;299417;202;63005;-52
2021/03/02 02:56:59;;;;;;;0.70;0.70;;;;;;;4.32;64.61;98141.47;299395;204;63009;-52
2021/03/02 03:02:08;;;;;;;0.70;0.70;;;;;;;4.36;64.20;98142.66;299394;278;64005;-53
2021/03/02 03:07:15;;;;;;;0.70;0.70;;;;;;;4.33;64.12;98147.66;299395;210;63009;-52
2021/03/02 03:12:17;;;;;;;0.70;0.70;;;;;;;4.35;64.05;98140.22;299395;220;63004;-57
2021/03/02 03:17:19;;;;;;;0.70;0.70;;;;;;;4.36;63.92;98147.22;299395;293;63009;-57
2021/03/02 03:22:21;;;;;;;0.70;0.70;;;;;;;4.44;63.24;98146.94;299395;222;63005;-57
2021/03/02 03:27:24;;;;;;;0.70;0.70;;;;;;;4.42;63.38;98149.03;299395;223;63009;-54
2021/03/02 03:32:27;;;;;;;0.70;0.70;;;;;;;4.38;63.33;98139.75;299395;295;63005;-58
2021/03/02 03:37:29;;;;;;;0.70;0.70;;;;;;;4.35;63.32;98140.22;299395;223;63009;-57
2021/03/02 03:42:30;;;;;;;0.70;0.70;;;;;;;4.33;63.49;98148.50;299395;215;63004;-57
2021/03/02 03:47:32;;;;;;;0.70;0.70;;;;;;;4.33;63.40;98148.50;299395;238;63009;-53
2021/03/02 03:52:40;;;;;;;0.70;0.70;;;;;;;4.21;63.78;98149.44;299395;232;63005;-53
2021/03/02 03:57:43;;;;;;;0.70;0.70;;;;;;;4.14;63.82;98149.53;299395;184;63008;-53
2021/03/02 04:02:47;;;;;;;0.70;0.70;;;;;;;4.01;64.42;98150.44;299395;224;63004;-57
2021/03/02 04:07:49;;;;;;;0.70;0.70;;;;;;;3.88;65.17;98157.78;299395;239;63009;-57
2021/03/02 04:12:50;;;;;;;0.68;0.68;;;;;;;3.78;65.52;98157.47;299395;197;63004;-57
2021/03/02 04:17:53;;;;;;;0.70;0.70;;;;;;;3.71;65.88;98160.22;299395;262;63009;-53
2021/03/02 04:22:57;;;;;;;0.70;0.70;;;;;;;3.65;66.22;98174.50;299395;231;63005;-54
2021/03/02 04:27:59;;;;;;;0.70;0.70;;;;;;;3.64;65.97;98170.16;299417;213;63008;-53
2021/03/02 04:33:01;;;;;;;0.70;0.70;;;;;;;3.65;65.89;98166.44;299395;234;63004;-53
2021/03/02 04:38:03;;;;;;;0.70;0.70;;;;;;;3.67;65.78;98169.72;299395;202;63009;-57
2021/03/02 04:43:05;;;;;;;0.70;0.70;;;;;;;3.67;65.86;98175.91;299395;198;63004;-54
2021/03/02 04:48:07;;;;;;;0.70;0.70;;;;;;;3.71;65.54;98181.69;299395;224;63021;-53
2021/03/02 04:53:09;;;;;;;0.70;0.70;;;;;;;3.60;65.89;98185.06;299395;222;63009;-53
2021/03/02 04:58:10;;;;;;;0.98;0.98;;;;;;;3.56;66.24;98190.03;299395;313;63009;-53
2021/03/02 05:03:11;;;;;;;0.70;0.70;;;;;;;3.62;65.81;98175.75;299395;220;63004;-53
2021/03/02 05:08:15;;;;;;;0.70;0.70;;;;;;;3.64;65.64;98175.53;299395;259;63015;-58
2021/03/02 05:13:19;;;;;;;0.70;0.70;;;;;;;3.65;65.83;98171.81;299417;250;63005;-54
2021/03/02 05:18:20;;;;;;;0.70;0.70;;;;;;;3.54;66.62;98183.22;299417;245;63009;-53
2021/03/02 05:23:20;;;;;;;0.70;0.70;;;;;;;3.65;65.67;98171.81;299395;208;63005;-52
2021/03/02 05:28:21;;;;;;;0.70;0.70;;;;;;;3.55;65.63;98174.13;299395;259;63009;-54
2021/03/02 05:33:22;;;;;;;0.60;0.60;;;;;;;3.43;66.15;98173.19;299395;264;63004;-57
2021/03/02 05:38:25;;;;;;;0.80;0.80;;;;;;;3.32;66.03;98178.22;299395;210;63009;-53
2021/03/02 05:43:28;;;;;;;0.70;0.70;;;;;;;3.18;66.42;98171.25;299395;216;63005;-57
2021/03/02 05:48:30;;;;;;;0.70;0.70;;;;;;;3.11;66.81;98175.88;299395;206;63009;-53
2021/03/02 05:53:31;;;;;;;0.80;0.80;;;;;;;2.94;67.40;98180.06;299395;233;63005;-54
2021/03/02 05:58:34;;;;;;;0.70;0.70;;;;;;;2.95;67.19;98176.34;299395;221;63018;-53
2021/03/02 06:03:36;;;;;;;0.70;0.70;;;;;;;2.86;67.79;98177.59;299395;208;63004;-52
2021/03/02 06:08:38;;;;;;;0.70;0.70;;;;;;;2.78;67.53;98180.50;299395;196;63009;-51
2021/03/02 06:13:39;;;;;;;0.70;0.70;;;;;;;2.67;67.74;98185.50;299395;255;63005;-53
2021/03/02 06:18:56;;;;;;;0.70;0.70;;;;;;;2.57;68.11;98185.13;299395;247;63009;-53
2021/03/02 06:23:57;;;;;;;0.70;0.70;;;;;;;2.42;68.28;98181.06;299395;205;63005;-52
2021/03/02 06:29:02;;;;;;;0.80;0.80;;;;;;;2.40;68.20;98183.94;299395;256;63020;-51
2021/03/02 06:34:17;;;;;;;0.80;0.80;;;;;;;2.11;69.56;98192.41;299395;254;63004;-52
2021/03/02 06:39:30;;;;;;;0.70;0.70;;;;;;;2.16;69.38;98203.31;299417;254;63009;-52
2021/03/02 06:44:31;;;;;;;0.80;0.80;;;;;;;2.19;69.22;98203.72;299395;222;63005;-58
2021/03/02 06:49:42;;;;;;;0.80;0.80;;;;;;;2.24;69.42;98216.50;299395;272;63008;-57
2021/03/02 06:54:52;;;;;;;0.70;0.70;;;;;;;2.20;69.77;98226.81;299395;230;63013;-58
2021/03/02 06:59:55;;;;;;;0.70;0.70;;;;;;;2.35;69.22;98223.91;299395;211;63009;-57
2021/03/02 07:05:14;;;;;;;0.80;0.80;;;;;;;2.47;69.12;98224.91;299395;239;63005;-57
2021/03/02 07:10:16;;;;;;;0.80;0.80;;;;;;;2.65;68.64;98230.47;299395;216;63009;-58
2021/03/02 07:15:18;;;;;;;0.70;0.70;;;;;;;2.79;68.52;98235.75;299395;210;63005;-58
2021/03/02 07:20:23;;;;;;;0.70;0.70;;;;;;;3.00;67.93;98235.50;299395;231;63009;-56
2021/03/02 07:25:28;;;;;;;0.70;0.70;;;;;;;3.08;67.91;98240.66;299395;211;63004;-59
2021/03/02 07:30:30;;;;;;;0.70;0.70;;;;;;;3.28;67.48;98241.37;299395;230;63009;-58
2021/03/02 07:35:32;;;;;;;0.70;0.70;;;;;;;3.49;67.19;98250.13;299395;211;63005;-58
2021/03/02 07:40:49;;;;;;;0.60;0.60;;;;;;;3.72;66.35;98247.75;299395;196;63009;-57
2021/03/02 07:45:50;;;;;;;0.70;0.70;;;;;;;3.89;66.17;98248.87;299395;215;63004;-57
2021/03/02 07:51:27;;;;;;;0.70;0.70;;;;;;;4.15;65.85;98252.41;299395;253;63009;-57
2021/03/02 07:56:28;;;;;;;0.70;0.70;;;;;;;4.42;65.22;98248.47;299395;259;63008;-58
2021/03/02 08:01:29;;;;;;;0.70;0.70;;;;;;;4.66;65.25;98250.28;299395;208;63004;-58
2021/03/02 08:06:34;;;;;;;0.70;0.70;;;;;;;5.02;63.66;98251.38;299395;225;63009;-57
2021/03/02 08:11:37;;;;;;;0.70;0.70;;;;;;;5.19;64.22;98262.38;299417;296;63004;-59
2021/03/02 08:17:18;;;;;;;0.70;0.70;;;;;;;5.63;62.00;98255.78;299395;277;63009;-57
2021/03/02 08:22:45;;;;;;;0.60;0.60;;;;;;;6.09;60.20;98248.94;299395;339;63005;-57
2021/03/02 08:27:56;;;;;;;0.60;0.60;;;;;;;6.24;59.45;98252.00;299395;280;63009;-57
2021/03/02 08:33:00;;;;;;;0.68;0.68;;;;;;;6.44;58.76;98247.13;299395;322;63004;-57
2021/03/02 08:38:07;;;;;;;1.00;1.00;;;;;;;6.64;59.07;98260.25;299417;270;63009;-57
2021/03/02 08:43:20;;;;;;;0.60;0.60;;;;;;;6.86;58.29;98265.91;299395;378;63005;-58
2021/03/02 08:48:27;;;;;;;1.90;1.80;;;;;;;7.07;57.54;98257.19;299395;227;63008;-57
2021/03/02 08:53:49;;;;;;;0.60;0.60;;;;;;;7.37;56.52;98255.13;299395;296;63004;-57
2021/03/02 08:59:02;;;;;;;0.70;0.70;;;;;;;7.18;57.80;98258.22;299395;218;63009;-58
2021/03/02 09:04:18;;;;;;;0.60;0.60;;;;;;;7.53;56.56;98247.34;299395;203;63005;-57
2021/03/02 09:09:22;;;;;;;;;;;;;;;7.80;56.47;98245.69;299996;982;6004;-58
2021/03/02 09:14:36;;;;;;;0.60;0.60;;;;;;;7.88;55.96;98248.00;299400;236;63009;-60
2021/03/02 09:19:42;;;;;;;0.60;0.60;;;;;;;7.83;55.71;98266.84;299395;198;63005;-57
2021/03/02 09:24:57;;;;;;;0.60;0.60;;;;;;;8.17;55.05;98261.50;299395;202;63009;-53
2021/03/02 09:29:58;;;;;;;0.60;0.60;;;;;;;8.20;54.66;98256.41;299417;275;63005;-58
2021/03/02 09:35:10;;;;;;;0.60;0.60;;;;;;;7.81;56.08;98277.06;299395;234;63009;-58
2021/03/02 09:40:14;;;;;;;0.68;0.68;;;;;;;7.85;55.41;98272.81;299395;227;63004;-58
2021/03/02 09:45:19;;;;;;;0.90;0.90;;;;;;;7.78;56.12;98271.31;299377;198;125009;-52
2021/03/02 09:50:21;;;;;;;0.62;0.62;;;;;;;7.83;56.12;98277.66;299395;240;63005;-57
2021/03/02 09:55:27;;;;;;;0.60;0.60;;;;;;;7.92;55.46;98264.56;299395;220;63008;-59
2021/03/02 10:00:50;;;;;;;0.60;0.60;;;;;;;7.96;55.79;98266.56;299395;209;63004;-58
2021/03/02 10:06:24;;;;;;;0.60;0.60;;;;;;;8.06;55.92;98272.13;299395;219;63009;-58
2021/03/02 10:11:27;;;;;;;0.60;0.60;;;;;;;8.12;56.47;98269.50;299395;236;63005;-58
2021/03/02 10:16:35;;;;;;;0.60;0.60;;;;;;;8.31;55.11;98268.25;299395;249;63009;-58
2021/03/02 10:21:49;;;;;;;0.70;0.70;;;;;;;8.57;54.82;98262.22;299395;224;63005;-57
2021/03/02 10:26:51;;;;;;;0.60;0.60;;;;;;;8.83;53.80;98265.28;299395;210;63009;-58
2021/03/02 10:31:53;;;;;;;0.60;0.60;;;;;;;9.02;53.26;98272.06;299395;210;63004;-58
2021/03/02 10:36:55;;;;;;;0.60;0.60;;;;;;;9.35;52.92;98269.28;299395;218;63009;-58
2021/03/02 10:41:56;;;;;;;0.60;0.60;;;;;;;9.55;51.42;98257.88;299395;197;63005;-58
2021/03/02 10:46:58;;;;;;;1.17;1.17;;;;;;;9.70;51.77;98265.38;299395;210;63009;-58
2021/03/02 10:51:59;;;;;;;0.60;0.60;;;;;;;9.66;51.91;98272.38;299395;224;63005;-58
2021/03/02 10:56:59;;;;;;;0.60;0.60;;;;;;;9.62;51.42;98263.94;299395;230;63009;-51
2021/03/02 11:02:00;;;;;;;0.60;0.60;;;;;;;9.69;51.82;98263.75;299395;196;63004;-57
2021/03/02 11:07:02;;;;;;;0.60;0.60;;;;;;;9.68;51.56;98267.53;299395;254;63009;-58
2021/03/02 11:12:03;;;;;;;0.60;0.60;;;;;;;9.76;51.84;98264.34;299395;243;63005;-58
2021/03/02 11:17:04;;;;;;;0.60;0.60;;;;;;;9.89;51.51;98255.81;299395;210;63009;-52
2021/03/02 11:22:05;;;;;;;0.60;0.60;;;;;;;10.01;50.27;98245.66;299395;216;63005;-58
2021/03/02 11:27:07;;;;;;;0.60;0.60;;;;;;;10.11;50.65;98241.37;299395;200;63009;-53
2021/03/02 11:32:08;;;;;;;0.70;0.70;;;;;;;10.23;49.22;98233.94;299395;202;63004;-58
2021/03/02 11:37:10;;;;;;;0.60;0.60;;;;;;;10.37;47.71;98214.28;299395;197;63020;-57
2021/03/02 11:42:11;;;;;;;14.32;5.28;;;;;;;10.47;47.77;98210.78;299392;289;65001;-58
2021/03/02 11:47:12;;;;;;;0.60;0.60;;;;;;;10.66;47.16;98214.75;299395;234;63009;-59
2021/03/02 11:52:13;;;;;;;0.60;0.60;;;;;;;10.80;45.59;98200.69;299394;294;64005;-60
2021/03/02 11:57:15;;;;;;;0.60;0.60;;;;;;;10.95;47.18;98206.22;299395;203;63005;-58
2021/03/02 12:02:20;;;;;;;0.60;0.60;;;;;;;11.09;46.35;98197.34;299395;243;63004;-53
2021/03/02 12:07:22;;;;;;;0.60;0.60;;;;;;;11.18;46.86;98205.81;299417;212;63009;-58
2021/03/02 12:12:23;;;;;;;0.60;0.60;;;;;;;11.27;46.26;98197.97;299395;263;63005;-59
2021/03/02 12:17:25;;;;;;;0.60;0.60;;;;;;;11.39;45.77;98193.97;299395;374;63008;-58
2021/03/02 12:22:27;;;;;;;5.20;4.90;;;;;;;11.63;43.79;98177.16;299395;237;63004;-58
2021/03/02 12:27:29;;;;;;;0.60;0.60;;;;;;;11.56;44.51;98187.47;299395;282;63009;-58
2021/03/02 12:32:30;;;;;;;0.60;0.60;;;;;;;11.71;45.04;98190.25;299395;210;63004;-58
2021/03/02 12:37:31;;;;;;;2.08;2.05;;;;;;;11.85;44.14;98182.41;299395;208;63009;-52
2021/03/02 12:42:33;;;;;;;0.60;0.60;;;;;;;11.77;43.76;98181.03;299395;226;63005;-59
2021/03/02 12:47:36;;;;;;;0.50;0.50;;;;;;;11.83;43.86;98179.94;299396;270;63008;-61
2021/03/02 12:52:40;;;;;;;2.45;2.35;;;;;;;11.90;43.56;98172.34;299396;206;63004;-59
2021/03/02 12:57:41;;;;;;;0.50;0.50;;;;;;;12.02;42.95;98167.47;299418;218;63009;-58
2021/03/02 13:02:45;;;;;;;0.60;0.60;;;;;;;12.11;42.20;98158.78;299396;218;63005;-59
2021/03/02 13:07:47;;;;;;;0.60;0.60;;;;;;;12.34;41.53;98152.78;299396;212;63009;-53
2021/03/02 13:12:49;;;;;;;0.60;0.60;;;;;;;12.43;41.18;98156.59;299396;204;63005;-58
2021/03/02 13:17:52;;;;;;;0.60;0.60;;;;;;;12.51;41.13;98158.72;299396;272;63009;-60
2021/03/02 13:22:55;;;;;;;0.60;0.60;;;;;;;12.57;40.83;98154.91;299396;215;63004;-56
2021/03/02 13:27:59;;;;;;;0.60;0.60;;;;;;;12.55;40.26;98148.94;299396;275;63009;-59
2021/03/02 13:33:05;;;;;;;;;;;;;;;12.68;39.75;98147.56;299997;983;6000;-58
2021/03/02 13:38:08;;;;;;;0.60;0.60;;;;;;;12.65;39.83;98154.38;299422;218;63004;-59
2021/03/02 13:43:14;;;;;;;0.90;0.90;;;;;;;12.59;40.08;98150.00;299396;196;64009;-53
2021/03/02 13:48:17;;;;;;;0.50;0.50;;;;;;;12.59;40.40;98155.47;299396;213;63005;-59
2021/03/02 13:53:19;;;;;;;0.60;0.60;;;;;;;12.57;40.54;98144.03;299396;228;63004;-59
2021/03/02 13:58:23;;;;;;;0.60;0.60;;;;;;;12.70;41.34;98150.81;299396;277;63004;-58
2021/03/02 14:03:25;;;;;;;0.60;0.60;;;;;;;12.62;40.77;98143.19;299418;252;63009;-59
2021/03/02 14:08:26;;;;;;;21.17;18.90;;;;;;;12.61;40.01;98142.38;299386;215;65004;-58
2021/03/02 14:13:28;;;;;;;0.60;0.60;;;;;;;12.74;39.51;98136.38;299396;230;63019;-59
2021/03/02 14:18:29;;;;;;;0.60;0.60;;;;;;;12.76;40.71;98149.72;299396;216;63005;-59
2021/03/02 14:23:30;;;;;;;0.60;0.60;;;;;;;12.93;39.98;98150.19;299397;220;63008;-58
2021/03/02 14:28:33;;;;;;;0.60;0.60;;;;;;;13.00;39.58;98137.09;299397;267;63004;-58
2021/03/02 14:33:34;;;;;;;0.60;0.60;;;;;;;13.10;38.68;98133.53;299395;273;63009;-57
2021/03/02 14:38:36;;;;;;;0.60;0.60;;;;;;;13.03;39.27;98135.72;299395;234;63004;-60
2021/03/02 14:43:38;;;;;;;0.60;0.60;;;;;;;12.95;39.79;98144.47;299395;213;63009;-59
2021/03/02 14:48:49;;;;;;;0.52;0.52;;;;;;;13.00;39.20;98139.00;299394;252;63009;-58
2021/03/02 14:53:52;;;;;;;0.50;0.50;;;;;;;12.95;39.86;98137.12;299395;222;63008;-60
2021/03/02 14:58:54;;;;;;;0.60;0.60;;;;;;;12.91;39.87;98140.66;299395;212;63004;-58
2021/03/02 15:03:59;;;;;;;0.60;0.60;;;;;;;12.86;39.50;98133.31;299395;197;63009;-59
2021/03/02 15:09:03;;;;;;;0.55;0.55;;;;;;;12.96;39.61;98133.31;299395;230;63005;-58
2021/03/02 15:14:07;;;;;;;0.60;0.60;;;;;;;12.93;39.80;98133.03;299417;252;63009;-59
2021/03/02 15:19:09;;;;;;;0.60;0.60;;;;;;;12.89;40.17;98124.59;299395;228;63005;-58
2021/03/02 15:24:11;;;;;;;0.60;0.60;;;;;;;12.93;39.57;98138.50;299395;227;63009;-59
2021/03/02 15:29:13;;;;;;;0.50;0.50;;;;;;;12.90;40.45;98128.97;299395;212;63004;-57
2021/03/02 15:34:15;;;;;;;0.50;0.50;;;;;;;13.00;40.19;98128.13;299395;203;63009;-57
2021/03/02 15:39:17;;;;;;;0.50;0.50;;;;;;;13.00;40.11;98119.94;299395;221;63006;-59
2021/03/02 15:44:20;;;;;;;2.83;2.72;;;;;;;13.06;40.37;98118.84;299395;231;63009;-59
2021/03/02 15:49:25;;;;;;;0.60;0.60;;;;;;;13.12;39.67;98112.28;299395;231;63005;-59
2021/03/02 15:54:30;;;;;;;0.50;0.50;;;;;;;13.07;40.01;98112.28;299395;236;63009;-58
2021/03/02 15:59:31;;;;;;;0.60;0.60;;;;;;;13.13;39.51;98099.47;299417;220;63004;-59
2021/03/02 16:04:47;;;;;;;0.60;0.60;;;;;;;13.04;39.79;98104.66;299395;236;63009;-61
2021/03/02 16:09:49;;;;;;;0.50;0.50;;;;;;;12.86;39.88;98094.38;299395;222;63005;-60
2021/03/02 16:14:58;;;;;;;0.60;0.60;;;;;;;12.61;40.53;98103.44;299467;202;64004;-59
2021/03/02 16:20:04;;;;;;;0.60;0.60;;;;;;;12.50;40.73;98102.66;299394;198;64009;-61
2021/03/02 16:25:07;;;;;;;0.60;0.60;;;;;;;12.24;40.97;98099.16;299395;214;63005;-61
2021/03/02 16:30:12;;;;;;;0.50;0.50;;;;;;;11.97;41.45;98095.94;299395;196;63008;-60
2021/03/02 16:35:15;;;;;;;0.50;0.50;;;;;;;11.73;41.52;98104.59;299395;277;63004;-60
2021/03/02 16:40:18;;;;;;;0.60;0.60;;;;;;;11.45;42.35;98106.97;299395;219;63009;-57
2021/03/02 16:45:21;;;;;;;0.60;0.60;;;;;;;11.13;43.40;98121.56;299417;224;63004;-58
2021/03/02 16:50:26;;;;;;;0.60;0.60;;;;;;;10.92;43.56;98128.00;299395;385;63009;-59
2021/03/02 16:55:38;;;;;;;0.60;0.60;;;;;;;10.56;45.25;98125.13;299395;230;63005;-59
2021/03/02 17:01:28;;;;;;;0.60;0.60;;;;;;;10.14;46.53;98140.50;299395;212;63008;-58
2021/03/02 17:06:33;;;;;;;0.60;0.60;;;;;;;9.84;47.05;98147.31;299395;235;63004;-59
2021/03/02 17:11:35;;;;;;;0.60;0.60;;;;;;;9.63;48.06;98159.06;299395;237;63009;-58
2021/03/02 17:16:37;;;;;;;0.60;0.60;;;;;;;9.46;48.54;98159.16;299395;238;63005;-58
2021/03/02 17:21:40;;;;;;;0.60;0.60;;;;;;;9.28;48.76;98168.44;299395;216;63009;-59
2021/03/02 17:26:41;;;;;;;0.60;0.60;;;;;;;9.12;48.84;98166.59;299395;229;63005;-58
2021/03/02 17:31:41;;;;;;;0.60;0.60;;;;;;;8.99;49.10;98177.84;299395;209;63009;-59
2021/03/02 17:36:43;;;;;;;0.60;0.60;;;;;;;8.87;49.46;98185.25;299395;206;63004;-59
2021/03/02 17:41:45;;;;;;;0.60;0.60;;;;;;;8.72;49.98;98186.66;299395;218;63009;-59
2021/03/02 17:46:46;;;;;;;0.60;0.60;;;;;;;8.59;50.13;98189.72;299395;259;63020;-59
2021/03/02 17:51:47;;;;;;;0.70;0.70;;;;;;;8.52;50.41;98199.91;299395;225;63009;-58
2021/03/02 17:56:49;;;;;;;0.60;0.60;;;;;;;8.46;50.69;98195.47;299394;278;64005;-58
2021/03/02 18:01:50;;;;;;;0.60;0.60;;;;;;;8.42;50.86;98205.16;299395;236;63009;-59
2021/03/02 18:07:07;;;;;;;0.60;0.60;;;;;;;8.42;51.06;98193.50;299395;288;63004;-58
2021/03/02 18:12:11;;;;;;;0.70;0.70;;;;;;;8.39;51.32;98198.34;299395;253;63009;-58
2021/03/02 18:17:13;;;;;;;0.60;0.60;;;;;;;8.32;51.96;98199.53;299395;322;63005;-53
2021/03/02 18:22:14;;;;;;;0.60;0.60;;;;;;;8.27;52.12;98194.06;299395;336;63009;-60
2021/03/02 18:27:15;;;;;;;0.60;0.60;;;;;;;8.17;52.93;98197.44;299395;222;63009;-59
2021/03/02 18:32:16;;;;;;;0.60;0.60;;;;;;;8.05;53.28;98211.00;299395;216;63009;-58
2021/03/02 18:37:18;;;;;;;0.60;0.60;;;;;;;7.98;53.92;98218.44;299395;216;63004;-58
2021/03/02 18:42:19;;;;;;;0.60;0.60;;;;;;;7.91;54.34;98217.00;299395;222;63009;-58
2021/03/02 18:47:20;;;;;;;0.60;0.60;;;;;;;7.85;54.90;98221.47;299396;211;63005;-57
2021/03/02 18:52:20;;;;;;;0.60;0.60;;;;;;;7.78;55.29;98223.50;299396;202;63004;-53
2021/03/02 18:57:22;;;;;;;0.60;0.60;;;;;;;7.73;56.10;98223.41;299396;219;63004;-57
2021/03/02 19:02:23;;;;;;;0.60;0.60;;;;;;;7.72;55.92;98221.75;299396;206;63009;-57
2021/03/02 19:07:24;;;;;;;0.60;0.60;;;;;;;7.74;55.36;98219.63;299396;233;63004;-58
2021/03/02 19:12:25;;;;;;;0.60;0.60;;;;;;;7.67;56.18;98219.78;299396;208;63009;-59
2021/03/02 19:17:26;;;;;;;0.60;0.60;;;;;;;7.61;55.84;98214.56;299396;386;63005;-59
2021/03/02 19:22:27;;;;;;;0.60;0.60;;;;;;;7.53;56.19;98231.97;299396;221;63008;-59
2021/03/02 19:27:28;;;;;;;0.60;0.60;;;;;;;7.47;56.09;98229.38;299396;224;63004;-59
2021/03/02 19:32:29;;;;;;;0.60;0.60;;;;;;;7.45;56.02;98220.72;299396;257;64013;-59
2021/03/02 19:37:31;;;;;;;0.60;0.60;;;;;;;7.42;56.51;98224.69;299397;237;63005;-60
2021/03/02 19:42:32;;;;;;;0.60;0.60;;;;;;;7.40;56.37;98216.03;299396;234;63009;-54
2021/03/02 19:47:36;;;;;;;0.62;0.62;;;;;;;7.44;56.14;98227.16;299396;286;63005;-58
2021/03/02 19:52:37;;;;;;;0.70;0.70;;;;;;;7.36;56.92;98223.78;299419;223;63009;-59
2021/03/02 19:57:40;;;;;;;0.60;0.60;;;;;;;7.29;57.36;98222.28;299375;265;63004;-59
2021/03/02 20:02:41;;;;;;;0.70;0.70;;;;;;;7.26;57.56;98223.59;299396;197;63009;-58
2021/03/02 20:07:43;;;;;;;0.60;0.60;;;;;;;7.21;57.77;98211.88;299396;228;63001;-58
2021/03/02 20:12:46;;;;;;;0.70;0.70;;;;;;;7.19;58.13;98217.50;299396;225;63009;-59
2021/03/02 20:17:50;;;;;;;0.60;0.60;;;;;;;7.14;58.90;98213.88;299396;203;63005;-59
2021/03/02 20:22:51;;;;;;;0.60;0.60;;;;;;;7.10;59.29;98223.50;299419;229;63018;-57
2021/03/02 20:27:53;;;;;;;0.60;0.60;;;;;;;7.05;59.25;98222.34;299397;210;63004;-59
2021/03/02 20:32:53;;;;;;;0.60;0.60;;;;;;;7.04;59.67;98222.56;299395;294;63009;-57
2021/03/02 20:37:54;;;;;;;0.60;0.60;;;;;;;7.09;59.98;98216.47;299395;282;63005;-53
2021/03/02 20:42:55;;;;;;;0.60;0.60;;;;;;;7.08;60.29;98221.03;299395;198;63009;-57
2021/03/02 20:47:57;;;;;;;0.60;0.60;;;;;;;7.05;60.09;98222.34;299395;246;63005;-57
2021/03/02 20:52:58;;;;;;;0.60;0.60;;;;;;;7.01;60.57;98220.34;299395;236;63009;-58
2021/03/02 20:57:58;;;;;;;0.60;0.60;;;;;;;6.95;61.53;98221.28;299395;256;63004;-59
2021/03/02 21:02:59;;;;;;;0.62;0.62;;;;;;;6.95;61.87;98221.28;299395;209;63017;-57
2021/03/02 21:08:01;;;;;;;0.60;0.60;;;;;;;6.97;62.51;98224.56;299395;276;63005;-57
2021/03/02 21:13:03;;;;;;;0.60;0.60;;;;;;;6.97;62.69;98214.59;299395;218;63009;-58
2021/03/02 21:18:05;;;;;;;0.60;0.60;;;;;;;6.93;63.41;98226.91;299395;202;63005;-58
2021/03/02 21:23:06;;;;;;;0.60;0.60;;;;;;;6.89;63.63;98217.69;299395;234;63009;-58
2021/03/02 21:28:08;;;;;;;0.60;0.60;;;;;;;6.89;63.58;98216.87;299395;212;63004;-57
2021/03/02 21:33:09;;;;;;;0.60;0.60;;;;;;;6.95;63.05;98221.28;299395;268;63009;-59
2021/03/02 21:38:11;;;;;;;0.60;0.60;;;;;;;6.93;63.72;98223.44;299395;196;63005;-58
2021/03/02 21:43:12;;;;;;;0.60;0.60;;;;;;;6.91;63.12;98231.75;299395;196;63008;-53
2021/03/02 21:48:13;;;;;;;0.60;0.60;;;;;;;6.83;63.10;98212.41;299395;238;63004;-58
2021/03/02 21:53:14;;;;;;;0.70;0.70;;;;;;;6.80;62.92;98211.00;299395;235;63009;-53
2021/03/02 21:58:15;;;;;;;0.65;0.65;;;;;;;6.81;62.86;98195.63;299395;232;63004;-58
2021/03/02 22:03:16;;;;;;;0.60;0.60;;;;;;;6.71;63.00;98194.34;299395;238;63009;-58
2021/03/02 22:08:18;;;;;;;0.60;0.60;;;;;;;6.55;63.74;98184.28;299395;259;63005;-58
2021/03/02 22:13:19;;;;;;;0.70;0.70;;;;;;;6.51;63.34;98188.50;299395;230;63008;-58
2021/03/02 22:18:20;;;;;;;0.70;0.70;;;;;;;6.58;63.47;98180.31;299395;199;63010;-58
2021/03/02 22:23:21;;;;;;;0.70;0.70;;;;;;;6.59;62.65;98190.84;299395;233;63009;-59
2021/03/02 22:28:21;;;;;;;0.70;0.70;;;;;;;6.59;62.87;98195.41;299395;213;63005;-58
2021/03/02 22:33:22;;;;;;;0.70;0.70;;;;;;;6.60;62.31;98197.88;299395;342;63009;-59
2021/03/02 22:38:23;;;;;;;0.70;0.70;;;;;;;6.68;62.00;98184.03;299395;216;63005;-57
2021/03/02 22:43:24;;;;;;;0.62;0.62;;;;;;;6.68;62.12;98186.72;299395;207;63009;-58
2021/03/02 22:48:25;;;;;;;0.65;0.65;;;;;;;6.59;62.10;98185.44;299395;217;63009;-59
2021/03/02 22:53:26;;;;;;;0.70;0.70;;;;;;;6.53;62.16;98183.72;299395;197;63009;-59
2021/03/02 22:58:27;;;;;;;0.68;0.68;;;;;;;6.52;62.06;98173.97;299395;206;63005;-58
2021/03/02 23:03:28;;;;;;;0.60;0.60;;;;;;;6.51;61.70;98177.72;299395;269;63009;-58
2021/03/02 23:08:30;;;;;;;0.70;0.70;;;;;;;6.55;61.95;98172.69;299395;196;63005;-57
2021/03/02 23:13:31;;;;;;;0.68;0.68;;;;;;;6.58;61.19;98180.31;299395;211;63008;-58
2021/03/02 23:18:32;;;;;;;0.70;0.70;;;;;;;6.73;60.56;98176.06;299395;324;63004;-57
2021/03/02 23:23:33;;;;;;;0.60;0.60;;;;;;;6.85;59.93;98172.53;299395;225;63009;-58
2021/03/02 23:28:34;;;;;;;0.60;0.60;;;;;;;7.08;59.28;98172.47;299395;235;63005;-58
2021/03/02 23:33:35;;;;;;;0.70;0.70;;;;;;;7.07;59.06;98171.63;299395;221;63009;-57
2021/03/02 23:38:36;;;;;;;0.70;0.70;;;;;;;7.18;58.56;98167.28;299395;222;63005;-58
2021/03/02 23:43:37;;;;;;;0.60;0.60;;;;;;;7.11;58.98;98158.50;299395;222;63009;-59
2021/03/02 23:48:38;;;;;;;0.70;0.70;;;;;;;7.06;59.06;98153.00;299395;246;63004;-58
2021/03/02 23:53:40;;;;;;;0.70;0.70;;;;;;;6.96;59.24;98152.78;299395;204;63009;-52
2021/03/02 23:58:41;;;;;;;0.70;0.70;;;;;;;6.77;60.49;98164.78;299395;236;63005;-58
